RJCW/WKJ METAR and TAF weather

Enter ICAO airport designator
Station Type Date Time Source
RJCW METAR 2020/04/07 02:00 UTC NOAA

RJCW 070200Z 30017KT 9999 -SHRA FEW008 BKN010 BKN020 03/02 Q1005


Station Type Date Time Source
RJCW Decoded METAR 2020/04/07 02:00 UTC NOAA

Wakkanai Airport, Japan (RJCW) 45-24N 141-48E 11M
Apr 06, 2020 - 10:00 PM EDT / 2020.04.07 0200 UTC
Wind: from the WNW (300 degrees) at 20 MPH (17 KT):0
Visibility: greater than 7 mile(s):0
Sky conditions: mostly cloudy
Weather: light rain showers
Temperature: 37 F (3 C)
Dew Point: 35 F (2 C)
Relative Humidity: 93%
Pressure (altimeter): 29.68 in. Hg (1005 hPa)
ob: RJCW 070200Z 30017KT 9999 -SHRA FEW008 BKN010 BKN020 03/02 Q1005
cycle: 2

Station Type Date Time Source
RJCW TAF UTC NOAA

Error!

Example: see airport list